sensor_id;sensor_type;location;lat;lon;timestamp;P1;durP1;ratioP1;P2;durP2;ratioP2
16954;SDS011;8594;52.052;8.354;2023-03-23T00:02:19;8.03;;;4.27;;
16954;SDS011;8594;52.052;8.354;2023-03-23T00:04:50;7.73;;;3.87;;
16954;SDS011;8594;52.052;8.354;2023-03-23T00:07:19;10.60;;;4.37;;
16954;SDS011;8594;52.052;8.354;2023-03-23T00:09:47;9.50;;;4.57;;
16954;SDS011;8594;52.052;8.354;2023-03-23T00:12:18;6.63;;;3.93;;
16954;SDS011;8594;52.052;8.354;2023-03-23T00:14:46;11.97;;;4.53;;
16954;SDS011;8594;52.052;8.354;2023-03-23T00:17:13;8.03;;;4.40;;
16954;SDS011;8594;52.052;8.354;2023-03-23T00:19:40;7.77;;;3.90;;
16954;SDS011;8594;52.052;8.354;2023-03-23T00:22:12;7.23;;;4.10;;
16954;SDS011;8594;52.052;8.354;2023-03-23T00:24:41;7.07;;;4.00;;
16954;SDS011;8594;52.052;8.354;2023-03-23T00:27:09;6.93;;;3.53;;
16954;SDS011;8594;52.052;8.354;2023-03-23T00:29:39;10.50;;;4.10;;
16954;SDS011;8594;52.052;8.354;2023-03-23T00:32:07;8.70;;;4.20;;
16954;SDS011;8594;52.052;8.354;2023-03-23T00:34:37;8.93;;;3.50;;
16954;SDS011;8594;52.052;8.354;2023-03-23T00:37:06;7.23;;;3.93;;
16954;SDS011;8594;52.052;8.354;2023-03-23T00:39:34;9.17;;;4.40;;
16954;SDS011;8594;52.052;8.354;2023-03-23T00:42:04;8.73;;;4.10;;
16954;SDS011;8594;52.052;8.354;2023-03-23T00:44:32;7.93;;;3.90;;
16954;SDS011;8594;52.052;8.354;2023-03-23T00:47:00;7.47;;;4.10;;
16954;SDS011;8594;52.052;8.354;2023-03-23T00:49:33;10.00;;;4.10;;
16954;SDS011;8594;52.052;8.354;2023-03-23T00:52:01;10.77;;;4.43;;
16954;SDS011;8594;52.052;8.354;2023-03-23T00:54:31;10.87;;;4.37;;
16954;SDS011;8594;52.052;8.354;2023-03-23T00:56:59;11.23;;;4.40;;
16954;SDS011;8594;52.052;8.354;2023-03-23T00:59:28;9.83;;;4.13;;
16954;SDS011;8594;52.052;8.354;2023-03-23T01:01:55;5.30;;;3.50;;
16954;SDS011;8594;52.052;8.354;2023-03-23T01:04:21;9.13;;;3.93;;
16954;SDS011;8594;52.052;8.354;2023-03-23T01:06:49;8.50;;;4.27;;
16954;SDS011;8594;52.052;8.354;2023-03-23T01:09:17;7.33;;;3.70;;
16954;SDS011;8594;52.052;8.354;2023-03-23T01:11:46;8.43;;;4.00;;
16954;SDS011;8594;52.052;8.354;2023-03-23T01:14:16;7.07;;;4.07;;
16954;SDS011;8594;52.052;8.354;2023-03-23T01:16:46;8.60;;;4.03;;
16954;SDS011;8594;52.052;8.354;2023-03-23T01:19:13;5.87;;;3.73;;
16954;SDS011;8594;52.052;8.354;2023-03-23T01:21:40;6.40;;;3.60;;
16954;SDS011;8594;52.052;8.354;2023-03-23T01:24:07;9.87;;;3.90;;
16954;SDS011;8594;52.052;8.354;2023-03-23T01:26:34;5.87;;;3.47;;
16954;SDS011;8594;52.052;8.354;2023-03-23T01:29:01;10.80;;;3.90;;
16954;SDS011;8594;52.052;8.354;2023-03-23T01:31:29;6.60;;;3.77;;
16954;SDS011;8594;52.052;8.354;2023-03-23T01:33:58;8.90;;;3.83;;
16954;SDS011;8594;52.052;8.354;2023-03-23T01:36:25;10.43;;;3.53;;
16954;SDS011;8594;52.052;8.354;2023-03-23T01:38:57;9.00;;;3.37;;
16954;SDS011;8594;52.052;8.354;2023-03-23T01:41:26;9.03;;;3.53;;
16954;SDS011;8594;52.052;8.354;2023-03-23T01:43:53;6.47;;;3.00;;
16954;SDS011;8594;52.052;8.354;2023-03-23T01:46:28;7.60;;;3.50;;
16954;SDS011;8594;52.052;8.354;2023-03-23T01:48:59;6.50;;;2.93;;
16954;SDS011;8594;52.052;8.354;2023-03-23T01:51:33;8.20;;;3.30;;
16954;SDS011;8594;52.052;8.354;2023-03-23T01:54:06;7.43;;;3.20;;
16954;SDS011;8594;52.052;8.354;2023-03-23T01:56:45;6.30;;;3.30;;
16954;SDS011;8594;52.052;8.354;2023-03-23T01:59:18;4.00;;;2.70;;
16954;SDS011;8594;52.052;8.354;2023-03-23T02:01:48;8.60;;;3.07;;
16954;SDS011;8594;52.052;8.354;2023-03-23T02:04:18;6.57;;;3.00;;
16954;SDS011;8594;52.052;8.354;2023-03-23T02:06:46;5.57;;;2.97;;
16954;SDS011;8594;52.052;8.354;2023-03-23T02:09:14;9.20;;;3.13;;
16954;SDS011;8594;52.052;8.354;2023-03-23T02:11:42;4.27;;;3.10;;
16954;SDS011;8594;52.052;8.354;2023-03-23T02:14:09;5.30;;;3.00;;
16954;SDS011;8594;52.052;8.354;2023-03-23T02:16:38;6.57;;;3.47;;
16954;SDS011;8594;52.052;8.354;2023-03-23T02:19:17;4.77;;;3.03;;
16954;SDS011;8594;52.052;8.354;2023-03-23T02:22:29;6.63;;;2.93;;
16954;SDS011;8594;52.052;8.354;2023-03-23T02:25:24;5.60;;;2.77;;
16954;SDS011;8594;52.052;8.354;2023-03-23T02:28:26;6.73;;;3.07;;
16954;SDS011;8594;52.052;8.354;2023-03-23T02:31:26;5.10;;;2.80;;
16954;SDS011;8594;52.052;8.354;2023-03-23T02:34:15;5.70;;;2.97;;
16954;SDS011;8594;52.052;8.354;2023-03-23T02:36:45;4.27;;;2.90;;
16954;SDS011;8594;52.052;8.354;2023-03-23T02:39:21;4.47;;;2.53;;
16954;SDS011;8594;52.052;8.354;2023-03-23T02:41:53;7.13;;;2.90;;
16954;SDS011;8594;52.052;8.354;2023-03-23T02:44:26;4.83;;;2.70;;
16954;SDS011;8594;52.052;8.354;2023-03-23T02:46:56;5.67;;;3.10;;
16954;SDS011;8594;52.052;8.354;2023-03-23T02:49:28;2.90;;;2.53;;
16954;SDS011;8594;52.052;8.354;2023-03-23T02:52:00;6.17;;;2.77;;
16954;SDS011;8594;52.052;8.354;2023-03-23T02:54:33;3.57;;;2.53;;
16954;SDS011;8594;52.052;8.354;2023-03-23T02:57:02;7.97;;;2.67;;
16954;SDS011;8594;52.052;8.354;2023-03-23T02:59:29;8.97;;;2.80;;
16954;SDS011;8594;52.052;8.354;2023-03-23T03:01:57;5.03;;;2.70;;
16954;SDS011;8594;52.052;8.354;2023-03-23T03:04:32;8.67;;;2.57;;
16954;SDS011;8594;52.052;8.354;2023-03-23T03:07:05;3.80;;;2.60;;
16954;SDS011;8594;52.052;8.354;2023-03-23T03:10:00;4.50;;;2.20;;
16954;SDS011;8594;52.052;8.354;2023-03-23T03:12:36;8.83;;;2.50;;
16954;SDS011;8594;52.052;8.354;2023-03-23T03:15:21;4.77;;;2.13;;
16954;SDS011;8594;52.052;8.354;2023-03-23T03:17:55;3.50;;;2.00;;
16954;SDS011;8594;52.052;8.354;2023-03-23T03:20:33;4.17;;;2.30;;
16954;SDS011;8594;52.052;8.354;2023-03-23T03:23:07;2.97;;;1.97;;
16954;SDS011;8594;52.052;8.354;2023-03-23T03:25:37;4.93;;;2.27;;
16954;SDS011;8594;52.052;8.354;2023-03-23T03:28:07;4.33;;;2.20;;
16954;SDS011;8594;52.052;8.354;2023-03-23T03:30:35;5.40;;;2.17;;
16954;SDS011;8594;52.052;8.354;2023-03-23T03:33:04;4.03;;;2.00;;
16954;SDS011;8594;52.052;8.354;2023-03-23T03:35:35;4.07;;;2.47;;
16954;SDS011;8594;52.052;8.354;2023-03-23T03:38:05;5.43;;;2.20;;
16954;SDS011;8594;52.052;8.354;2023-03-23T03:40:33;6.63;;;2.30;;
16954;SDS011;8594;52.052;8.354;2023-03-23T03:43:01;3.30;;;2.00;;
16954;SDS011;8594;52.052;8.354;2023-03-23T03:45:29;4.03;;;2.00;;
16954;SDS011;8594;52.052;8.354;2023-03-23T03:47:56;3.90;;;2.10;;
16954;SDS011;8594;52.052;8.354;2023-03-23T03:50:23;2.77;;;1.90;;
16954;SDS011;8594;52.052;8.354;2023-03-23T03:52:51;4.70;;;2.23;;
16954;SDS011;8594;52.052;8.354;2023-03-23T03:55:18;3.43;;;1.83;;
16954;SDS011;8594;52.052;8.354;2023-03-23T03:57:45;6.00;;;2.37;;
16954;SDS011;8594;52.052;8.354;2023-03-23T04:00:13;5.20;;;2.30;;
16954;SDS011;8594;52.052;8.354;2023-03-23T04:02:42;5.37;;;1.93;;
16954;SDS011;8594;52.052;8.354;2023-03-23T04:05:12;5.63;;;2.27;;
16954;SDS011;8594;52.052;8.354;2023-03-23T04:07:40;3.67;;;2.20;;
16954;SDS011;8594;52.052;8.354;2023-03-23T04:10:09;3.13;;;2.07;;
16954;SDS011;8594;52.052;8.354;2023-03-23T04:12:38;4.77;;;2.00;;
16954;SDS011;8594;52.052;8.354;2023-03-23T04:15:05;4.77;;;2.10;;
16954;SDS011;8594;52.052;8.354;2023-03-23T04:17:33;3.23;;;2.00;;
16954;SDS011;8594;52.052;8.354;2023-03-23T04:20:01;3.67;;;2.20;;
16954;SDS011;8594;52.052;8.354;2023-03-23T04:22:32;3.30;;;2.17;;
16954;SDS011;8594;52.052;8.354;2023-03-23T04:25:00;4.63;;;2.20;;
16954;SDS011;8594;52.052;8.354;2023-03-23T04:27:32;6.23;;;2.83;;
16954;SDS011;8594;52.052;8.354;2023-03-23T04:29:59;3.70;;;2.10;;
16954;SDS011;8594;52.052;8.354;2023-03-23T04:32:27;3.33;;;2.33;;
16954;SDS011;8594;52.052;8.354;2023-03-23T04:34:55;6.77;;;2.00;;
16954;SDS011;8594;52.052;8.354;2023-03-23T04:37:23;2.70;;;2.00;;
16954;SDS011;8594;52.052;8.354;2023-03-23T04:39:53;3.57;;;2.27;;
16954;SDS011;8594;52.052;8.354;2023-03-23T04:42:25;3.80;;;2.20;;
16954;SDS011;8594;52.052;8.354;2023-03-23T04:44:55;3.67;;;2.00;;
16954;SDS011;8594;52.052;8.354;2023-03-23T04:47:24;3.73;;;2.27;;
16954;SDS011;8594;52.052;8.354;2023-03-23T04:49:54;3.80;;;2.20;;
16954;SDS011;8594;52.052;8.354;2023-03-23T04:52:22;4.37;;;2.00;;
16954;SDS011;8594;52.052;8.354;2023-03-23T04:54:49;5.73;;;2.00;;
16954;SDS011;8594;52.052;8.354;2023-03-23T04:57:17;3.60;;;2.20;;
16954;SDS011;8594;52.052;8.354;2023-03-23T04:59:44;3.90;;;2.13;;
16954;SDS011;8594;52.052;8.354;2023-03-23T05:02:12;3.70;;;2.23;;
16954;SDS011;8594;52.052;8.354;2023-03-23T05:04:42;4.03;;;2.20;;
16954;SDS011;8594;52.052;8.354;2023-03-23T05:07:10;9.70;;;2.47;;
16954;SDS011;8594;52.052;8.354;2023-03-23T05:09:37;4.60;;;2.50;;
16954;SDS011;8594;52.052;8.354;2023-03-23T05:12:04;5.47;;;2.33;;
16954;SDS011;8594;52.052;8.354;2023-03-23T05:14:32;5.37;;;2.13;;
16954;SDS011;8594;52.052;8.354;2023-03-23T05:16:59;5.20;;;2.47;;
16954;SDS011;8594;52.052;8.354;2023-03-23T05:19:28;3.60;;;1.83;;
16954;SDS011;8594;52.052;8.354;2023-03-23T05:21:56;4.63;;;2.17;;
16954;SDS011;8594;52.052;8.354;2023-03-23T05:24:28;2.83;;;1.97;;
16954;SDS011;8594;52.052;8.354;2023-03-23T05:26:57;5.43;;;2.43;;
16954;SDS011;8594;52.052;8.354;2023-03-23T05:29:25;6.00;;;2.80;;
16954;SDS011;8594;52.052;8.354;2023-03-23T05:31:55;3.50;;;2.20;;
16954;SDS011;8594;52.052;8.354;2023-03-23T05:34:24;4.77;;;2.20;;
16954;SDS011;8594;52.052;8.354;2023-03-23T05:36:53;3.80;;;2.30;;
16954;SDS011;8594;52.052;8.354;2023-03-23T05:39:20;3.80;;;2.00;;
16954;SDS011;8594;52.052;8.354;2023-03-23T05:41:47;5.27;;;1.93;;
16954;SDS011;8594;52.052;8.354;2023-03-23T05:44:14;3.23;;;2.20;;
16954;SDS011;8594;52.052;8.354;2023-03-23T05:46:41;7.03;;;2.47;;
16954;SDS011;8594;52.052;8.354;2023-03-23T05:49:08;4.83;;;2.20;;
16954;SDS011;8594;52.052;8.354;2023-03-23T05:51:35;4.73;;;2.20;;
16954;SDS011;8594;52.052;8.354;2023-03-23T05:54:04;3.17;;;2.17;;
16954;SDS011;8594;52.052;8.354;2023-03-23T05:56:31;4.77;;;2.30;;
16954;SDS011;8594;52.052;8.354;2023-03-23T05:58:58;5.13;;;2.30;;
16954;SDS011;8594;52.052;8.354;2023-03-23T06:01:25;3.93;;;2.23;;
16954;SDS011;8594;52.052;8.354;2023-03-23T06:03:52;3.40;;;2.57;;
16954;SDS011;8594;52.052;8.354;2023-03-23T06:06:23;3.27;;;2.33;;
16954;SDS011;8594;52.052;8.354;2023-03-23T06:08:51;7.87;;;4.40;;
16954;SDS011;8594;52.052;8.354;2023-03-23T06:11:19;6.00;;;2.20;;
16954;SDS011;8594;52.052;8.354;2023-03-23T06:13:46;5.03;;;2.37;;
16954;SDS011;8594;52.052;8.354;2023-03-23T06:16:14;7.27;;;2.50;;
16954;SDS011;8594;52.052;8.354;2023-03-23T06:18:41;3.13;;;2.27;;
16954;SDS011;8594;52.052;8.354;2023-03-23T06:21:08;3.67;;;2.50;;
16954;SDS011;8594;52.052;8.354;2023-03-23T06:23:37;4.13;;;2.40;;
16954;SDS011;8594;52.052;8.354;2023-03-23T06:26:05;4.20;;;2.33;;
16954;SDS011;8594;52.052;8.354;2023-03-23T06:28:36;3.00;;;2.33;;
16954;SDS011;8594;52.052;8.354;2023-03-23T06:31:03;4.70;;;2.27;;
16954;SDS011;8594;52.052;8.354;2023-03-23T06:33:32;2.73;;;2.00;;
16954;SDS011;8594;52.052;8.354;2023-03-23T06:36:00;6.03;;;2.33;;
16954;SDS011;8594;52.052;8.354;2023-03-23T06:38:28;4.10;;;2.23;;
16954;SDS011;8594;52.052;8.354;2023-03-23T06:40:55;3.43;;;2.27;;
16954;SDS011;8594;52.052;8.354;2023-03-23T06:43:23;5.33;;;2.20;;
16954;SDS011;8594;52.052;8.354;2023-03-23T06:45:51;3.20;;;2.03;;
16954;SDS011;8594;52.052;8.354;2023-03-23T06:48:18;4.10;;;2.57;;
16954;SDS011;8594;52.052;8.354;2023-03-23T06:50:45;5.83;;;2.17;;
16954;SDS011;8594;52.052;8.354;2023-03-23T06:53:12;5.13;;;2.60;;
16954;SDS011;8594;52.052;8.354;2023-03-23T06:55:39;3.27;;;2.10;;
16954;SDS011;8594;52.052;8.354;2023-03-23T06:58:10;4.50;;;2.10;;
16954;SDS011;8594;52.052;8.354;2023-03-23T07:00:37;6.13;;;2.60;;
16954;SDS011;8594;52.052;8.354;2023-03-23T07:03:06;3.10;;;2.03;;
16954;SDS011;8594;52.052;8.354;2023-03-23T07:05:33;3.03;;;2.17;;
16954;SDS011;8594;52.052;8.354;2023-03-23T07:08:01;4.10;;;2.30;;
16954;SDS011;8594;52.052;8.354;2023-03-23T07:10:28;3.10;;;2.43;;
16954;SDS011;8594;52.052;8.354;2023-03-23T07:12:56;6.30;;;2.10;;
16954;SDS011;8594;52.052;8.354;2023-03-23T07:15:24;6.07;;;2.37;;
16954;SDS011;8594;52.052;8.354;2023-03-23T07:17:51;4.17;;;2.20;;
16954;SDS011;8594;52.052;8.354;2023-03-23T07:20:20;3.77;;;2.30;;
16954;SDS011;8594;52.052;8.354;2023-03-23T07:22:47;5.20;;;2.33;;
16954;SDS011;8594;52.052;8.354;2023-03-23T07:25:15;4.73;;;2.30;;
16954;SDS011;8594;52.052;8.354;2023-03-23T07:27:43;5.60;;;2.20;;
16954;SDS011;8594;52.052;8.354;2023-03-23T07:30:11;4.53;;;2.20;;
16954;SDS011;8594;52.052;8.354;2023-03-23T07:32:39;7.00;;;2.37;;
16954;SDS011;8594;52.052;8.354;2023-03-23T07:35:07;5.60;;;2.10;;
16954;SDS011;8594;52.052;8.354;2023-03-23T07:37:37;4.63;;;2.70;;
16954;SDS011;8594;52.052;8.354;2023-03-23T07:40:04;4.77;;;2.27;;
16954;SDS011;8594;52.052;8.354;2023-03-23T07:42:39;3.07;;;2.40;;
16954;SDS011;8594;52.052;8.354;2023-03-23T07:45:08;7.67;;;2.70;;
16954;SDS011;8594;52.052;8.354;2023-03-23T07:47:36;6.73;;;2.60;;
16954;SDS011;8594;52.052;8.354;2023-03-23T07:50:03;3.03;;;2.03;;
16954;SDS011;8594;52.052;8.354;2023-03-23T07:52:32;5.70;;;2.57;;
16954;SDS011;8594;52.052;8.354;2023-03-23T07:55:02;5.10;;;2.70;;
16954;SDS011;8594;52.052;8.354;2023-03-23T07:57:33;6.77;;;2.33;;
16954;SDS011;8594;52.052;8.354;2023-03-23T08:00:01;7.80;;;2.40;;
16954;SDS011;8594;52.052;8.354;2023-03-23T08:02:39;5.07;;;2.30;;
16954;SDS011;8594;52.052;8.354;2023-03-23T08:05:06;6.43;;;2.50;;
16954;SDS011;8594;52.052;8.354;2023-03-23T08:07:35;5.73;;;2.80;;
16954;SDS011;8594;52.052;8.354;2023-03-23T08:10:04;5.17;;;2.50;;
16954;SDS011;8594;52.052;8.354;2023-03-23T08:12:35;5.20;;;2.63;;
16954;SDS011;8594;52.052;8.354;2023-03-23T08:15:02;6.10;;;2.77;;
16954;SDS011;8594;52.052;8.354;2023-03-23T08:17:31;4.70;;;2.50;;
16954;SDS011;8594;52.052;8.354;2023-03-23T08:19:59;3.40;;;2.37;;
16954;SDS011;8594;52.052;8.354;2023-03-23T08:22:33;5.53;;;2.80;;
16954;SDS011;8594;52.052;8.354;2023-03-23T08:25:00;5.57;;;2.60;;
16954;SDS011;8594;52.052;8.354;2023-03-23T08:27:29;6.90;;;2.50;;
16954;SDS011;8594;52.052;8.354;2023-03-23T08:29:56;5.20;;;2.60;;
16954;SDS011;8594;52.052;8.354;2023-03-23T08:32:24;7.47;;;2.50;;
16954;SDS011;8594;52.052;8.354;2023-03-23T08:34:51;9.13;;;3.47;;
16954;SDS011;8594;52.052;8.354;2023-03-23T08:37:18;7.03;;;2.60;;
16954;SDS011;8594;52.052;8.354;2023-03-23T08:39:45;9.63;;;3.20;;
16954;SDS011;8594;52.052;8.354;2023-03-23T08:42:11;7.00;;;2.50;;
16954;SDS011;8594;52.052;8.354;2023-03-23T08:44:40;5.90;;;2.63;;
16954;SDS011;8594;52.052;8.354;2023-03-23T08:47:07;10.23;;;2.90;;
16954;SDS011;8594;52.052;8.354;2023-03-23T08:49:34;10.40;;;2.83;;
16954;SDS011;8594;52.052;8.354;2023-03-23T08:52:01;6.03;;;2.30;;
16954;SDS011;8594;52.052;8.354;2023-03-23T08:54:29;9.77;;;2.67;;
16954;SDS011;8594;52.052;8.354;2023-03-23T08:56:58;9.07;;;2.93;;
16954;SDS011;8594;52.052;8.354;2023-03-23T08:59:26;11.57;;;3.27;;
16954;SDS011;8594;52.052;8.354;2023-03-23T09:01:55;7.33;;;3.00;;
16954;SDS011;8594;52.052;8.354;2023-03-23T09:04:22;5.47;;;2.23;;
16954;SDS011;8594;52.052;8.354;2023-03-23T09:06:49;7.30;;;2.50;;
16954;SDS011;8594;52.052;8.354;2023-03-23T09:09:15;12.03;;;2.60;;
16954;SDS011;8594;52.052;8.354;2023-03-23T09:11:42;13.87;;;2.97;;
16954;SDS011;8594;52.052;8.354;2023-03-23T09:14:10;9.20;;;2.50;;
16954;SDS011;8594;52.052;8.354;2023-03-23T09:16:37;7.33;;;2.47;;
16954;SDS011;8594;52.052;8.354;2023-03-23T09:19:06;12.93;;;2.80;;
16954;SDS011;8594;52.052;8.354;2023-03-23T09:21:34;9.80;;;3.07;;
16954;SDS011;8594;52.052;8.354;2023-03-23T09:24:02;7.67;;;2.80;;
16954;SDS011;8594;52.052;8.354;2023-03-23T09:26:30;7.50;;;2.40;;
16954;SDS011;8594;52.052;8.354;2023-03-23T09:28:57;6.40;;;2.80;;
16954;SDS011;8594;52.052;8.354;2023-03-23T09:31:24;10.90;;;3.40;;
16954;SDS011;8594;52.052;8.354;2023-03-23T09:33:52;6.07;;;2.60;;
16954;SDS011;8594;52.052;8.354;2023-03-23T09:36:22;6.87;;;2.57;;
16954;SDS011;8594;52.052;8.354;2023-03-23T09:38:51;8.53;;;2.93;;
16954;SDS011;8594;52.052;8.354;2023-03-23T09:41:24;4.57;;;2.60;;
16954;SDS011;8594;52.052;8.354;2023-03-23T09:44:14;5.87;;;2.60;;
16954;SDS011;8594;52.052;8.354;2023-03-23T09:46:56;7.20;;;2.50;;
16954;SDS011;8594;52.052;8.354;2023-03-23T09:49:30;8.40;;;2.83;;
16954;SDS011;8594;52.052;8.354;2023-03-23T09:52:06;10.77;;;3.10;;
16954;SDS011;8594;52.052;8.354;2023-03-23T09:54:40;6.90;;;2.43;;
16954;SDS011;8594;52.052;8.354;2023-03-23T09:57:11;8.30;;;2.87;;
16954;SDS011;8594;52.052;8.354;2023-03-23T09:59:46;8.40;;;2.77;;
16954;SDS011;8594;52.052;8.354;2023-03-23T10:02:24;7.43;;;2.70;;
16954;SDS011;8594;52.052;8.354;2023-03-23T10:05:02;10.60;;;3.23;;
16954;SDS011;8594;52.052;8.354;2023-03-23T10:07:55;12.73;;;3.20;;
16954;SDS011;8594;52.052;8.354;2023-03-23T10:10:22;8.60;;;3.27;;
16954;SDS011;8594;52.052;8.354;2023-03-23T10:12:59;8.90;;;3.17;;
16954;SDS011;8594;52.052;8.354;2023-03-23T10:15:34;6.87;;;2.70;;
16954;SDS011;8594;52.052;8.354;2023-03-23T10:18:10;10.73;;;3.07;;
16954;SDS011;8594;52.052;8.354;2023-03-23T10:20:46;11.50;;;3.10;;
16954;SDS011;8594;52.052;8.354;2023-03-23T10:26:20;9.17;;;2.50;;
16954;SDS011;8594;52.052;8.354;2023-03-23T10:28:58;9.97;;;2.90;;
16954;SDS011;8594;52.052;8.354;2023-03-23T10:31:38;9.43;;;2.70;;
16954;SDS011;8594;52.052;8.354;2023-03-23T10:34:10;13.37;;;3.03;;
16954;SDS011;8594;52.052;8.354;2023-03-23T10:36:49;7.30;;;2.87;;
16954;SDS011;8594;52.052;8.354;2023-03-23T10:39:27;11.23;;;2.40;;
16954;SDS011;8594;52.052;8.354;2023-03-23T10:42:03;6.70;;;1.73;;
16954;SDS011;8594;52.052;8.354;2023-03-23T10:44:32;5.73;;;1.37;;
16954;SDS011;8594;52.052;8.354;2023-03-23T10:47:01;4.17;;;1.10;;
16954;SDS011;8594;52.052;8.354;2023-03-23T10:49:32;1.53;;;1.17;;
16954;SDS011;8594;52.052;8.354;2023-03-23T10:52:09;4.83;;;1.67;;
16954;SDS011;8594;52.052;8.354;2023-03-23T10:54:54;4.57;;;1.00;;
16954;SDS011;8594;52.052;8.354;2023-03-23T10:57:24;7.67;;;1.60;;
16954;SDS011;8594;52.052;8.354;2023-03-23T11:00:00;2.40;;;1.43;;
16954;SDS011;8594;52.052;8.354;2023-03-23T11:02:32;2.03;;;0.93;;
16954;SDS011;8594;52.052;8.354;2023-03-23T11:05:07;2.70;;;1.07;;
16954;SDS011;8594;52.052;8.354;2023-03-23T11:07:48;2.77;;;1.07;;
16954;SDS011;8594;52.052;8.354;2023-03-23T11:10:22;2.90;;;1.43;;
16954;SDS011;8594;52.052;8.354;2023-03-23T11:12:52;2.17;;;1.10;;
16954;SDS011;8594;52.052;8.354;2023-03-23T11:15:25;3.33;;;1.17;;
16954;SDS011;8594;52.052;8.354;2023-03-23T11:17:56;3.47;;;1.13;;
16954;SDS011;8594;52.052;8.354;2023-03-23T11:20:29;2.60;;;0.83;;
16954;SDS011;8594;52.052;8.354;2023-03-23T11:23:07;3.00;;;1.07;;
16954;SDS011;8594;52.052;8.354;2023-03-23T11:25:57;2.90;;;1.30;;
16954;SDS011;8594;52.052;8.354;2023-03-23T11:28:31;5.30;;;1.27;;
16954;SDS011;8594;52.052;8.354;2023-03-23T11:31:00;3.37;;;1.03;;
16954;SDS011;8594;52.052;8.354;2023-03-23T11:33:35;5.07;;;1.30;;
16954;SDS011;8594;52.052;8.354;2023-03-23T11:36:05;2.43;;;1.00;;
16954;SDS011;8594;52.052;8.354;2023-03-23T11:38:34;2.30;;;1.00;;
16954;SDS011;8594;52.052;8.354;2023-03-23T11:41:08;5.33;;;1.40;;
16954;SDS011;8594;52.052;8.354;2023-03-23T11:43:39;3.20;;;1.30;;
16954;SDS011;8594;52.052;8.354;2023-03-23T11:46:11;4.97;;;1.20;;
16954;SDS011;8594;52.052;8.354;2023-03-23T11:48:50;3.13;;;1.10;;
16954;SDS011;8594;52.052;8.354;2023-03-23T11:51:24;2.40;;;1.00;;
16954;SDS011;8594;52.052;8.354;2023-03-23T11:54:00;5.53;;;1.33;;
16954;SDS011;8594;52.052;8.354;2023-03-23T11:56:37;3.50;;;1.00;;
16954;SDS011;8594;52.052;8.354;2023-03-23T11:59:09;4.77;;;1.10;;
16954;SDS011;8594;52.052;8.354;2023-03-23T12:01:43;5.10;;;1.57;;
16954;SDS011;8594;52.052;8.354;2023-03-23T12:04:25;2.13;;;1.47;;
16954;SDS011;8594;52.052;8.354;2023-03-23T12:07:27;8.87;;;1.40;;
16954;SDS011;8594;52.052;8.354;2023-03-23T12:10:16;5.17;;;1.10;;
16954;SDS011;8594;52.052;8.354;2023-03-23T12:12:56;3.40;;;1.13;;
16954;SDS011;8594;52.052;8.354;2023-03-23T12:15:42;2.90;;;1.10;;
16954;SDS011;8594;52.052;8.354;2023-03-23T12:18:20;4.37;;;1.03;;
16954;SDS011;8594;52.052;8.354;2023-03-23T12:21:11;2.63;;;1.30;;
16954;SDS011;8594;52.052;8.354;2023-03-23T12:23:50;2.87;;;1.10;;
16954;SDS011;8594;52.052;8.354;2023-03-23T12:26:29;3.33;;;1.10;;
16954;SDS011;8594;52.052;8.354;2023-03-23T12:29:06;3.17;;;1.13;;
16954;SDS011;8594;52.052;8.354;2023-03-23T12:31:57;3.17;;;1.30;;
16954;SDS011;8594;52.052;8.354;2023-03-23T12:34:49;4.03;;;1.70;;
16954;SDS011;8594;52.052;8.354;2023-03-23T12:37:26;5.37;;;1.50;;
16954;SDS011;8594;52.052;8.354;2023-03-23T12:40:16;6.10;;;1.17;;
16954;SDS011;8594;52.052;8.354;2023-03-23T12:43:01;4.73;;;1.37;;
16954;SDS011;8594;52.052;8.354;2023-03-23T12:45:46;4.83;;;1.70;;
16954;SDS011;8594;52.052;8.354;2023-03-23T12:48:32;3.93;;;1.10;;
16954;SDS011;8594;52.052;8.354;2023-03-23T12:51:07;4.37;;;1.13;;
16954;SDS011;8594;52.052;8.354;2023-03-23T12:53:44;5.40;;;1.70;;
16954;SDS011;8594;52.052;8.354;2023-03-23T12:56:21;4.03;;;1.40;;
16954;SDS011;8594;52.052;8.354;2023-03-23T12:58:58;4.93;;;1.50;;
16954;SDS011;8594;52.052;8.354;2023-03-23T13:01:40;2.73;;;1.40;;
16954;SDS011;8594;52.052;8.354;2023-03-23T13:04:13;3.60;;;1.20;;
16954;SDS011;8594;52.052;8.354;2023-03-23T13:06:47;4.73;;;1.30;;
16954;SDS011;8594;52.052;8.354;2023-03-23T13:09:16;4.83;;;1.40;;
16954;SDS011;8594;52.052;8.354;2023-03-23T13:11:51;5.53;;;1.30;;
16954;SDS011;8594;52.052;8.354;2023-03-23T13:14:25;5.40;;;1.27;;
16954;SDS011;8594;52.052;8.354;2023-03-23T13:17:10;2.40;;;1.30;;
16954;SDS011;8594;52.052;8.354;2023-03-23T13:20:00;2.97;;;1.30;;
16954;SDS011;8594;52.052;8.354;2023-03-23T13:23:02;2.37;;;1.23;;
16954;SDS011;8594;52.052;8.354;2023-03-23T13:25:43;4.63;;;1.43;;
16954;SDS011;8594;52.052;8.354;2023-03-23T13:28:19;2.23;;;1.37;;
16954;SDS011;8594;52.052;8.354;2023-03-23T13:30:54;2.87;;;1.27;;
16954;SDS011;8594;52.052;8.354;2023-03-23T13:33:25;4.00;;;1.50;;
16954;SDS011;8594;52.052;8.354;2023-03-23T13:35:56;2.70;;;1.40;;
16954;SDS011;8594;52.052;8.354;2023-03-23T13:38:30;3.63;;;1.90;;
16954;SDS011;8594;52.052;8.354;2023-03-23T13:40:57;5.30;;;2.00;;
16954;SDS011;8594;52.052;8.354;2023-03-23T13:43:33;4.67;;;1.90;;
16954;SDS011;8594;52.052;8.354;2023-03-23T13:46:10;4.40;;;1.83;;
16954;SDS011;8594;52.052;8.354;2023-03-23T13:49:03;4.50;;;2.33;;
16954;SDS011;8594;52.052;8.354;2023-03-23T13:51:56;4.13;;;2.60;;
16954;SDS011;8594;52.052;8.354;2023-03-23T13:54:44;3.90;;;2.37;;
16954;SDS011;8594;52.052;8.354;2023-03-23T13:57:32;2.90;;;2.20;;
16954;SDS011;8594;52.052;8.354;2023-03-23T14:00:11;5.40;;;2.37;;
16954;SDS011;8594;52.052;8.354;2023-03-23T14:03:05;5.13;;;2.70;;
16954;SDS011;8594;52.052;8.354;2023-03-23T14:05:41;3.83;;;2.93;;
16954;SDS011;8594;52.052;8.354;2023-03-23T14:08:11;5.87;;;2.97;;
16954;SDS011;8594;52.052;8.354;2023-03-23T14:10:49;4.57;;;2.60;;
16954;SDS011;8594;52.052;8.354;2023-03-23T14:13:21;4.10;;;3.10;;
16954;SDS011;8594;52.052;8.354;2023-03-23T14:15:57;5.43;;;3.33;;
16954;SDS011;8594;52.052;8.354;2023-03-23T14:18:30;3.43;;;3.10;;
16954;SDS011;8594;52.052;8.354;2023-03-23T14:21:04;4.90;;;3.20;;
16954;SDS011;8594;52.052;8.354;2023-03-23T14:23:39;3.97;;;3.30;;
16954;SDS011;8594;52.052;8.354;2023-03-23T14:26:10;7.10;;;3.57;;
16954;SDS011;8594;52.052;8.354;2023-03-23T14:28:42;5.33;;;3.70;;
16954;SDS011;8594;52.052;8.354;2023-03-23T14:31:14;5.93;;;4.20;;
16954;SDS011;8594;52.052;8.354;2023-03-23T14:33:46;12.20;;;4.90;;
16954;SDS011;8594;52.052;8.354;2023-03-23T14:36:15;7.87;;;5.50;;
16954;SDS011;8594;52.052;8.354;2023-03-23T14:38:48;8.60;;;5.40;;
16954;SDS011;8594;52.052;8.354;2023-03-23T14:41:22;10.90;;;5.70;;
16954;SDS011;8594;52.052;8.354;2023-03-23T14:43:49;7.23;;;5.00;;
16954;SDS011;8594;52.052;8.354;2023-03-23T14:46:16;7.30;;;5.20;;
16954;SDS011;8594;52.052;8.354;2023-03-23T14:48:43;7.60;;;5.20;;
16954;SDS011;8594;52.052;8.354;2023-03-23T14:51:17;7.80;;;6.13;;
16954;SDS011;8594;52.052;8.354;2023-03-23T14:53:46;10.03;;;5.87;;
16954;SDS011;8594;52.052;8.354;2023-03-23T14:56:16;11.33;;;5.53;;
16954;SDS011;8594;52.052;8.354;2023-03-23T14:58:47;6.33;;;4.80;;
16954;SDS011;8594;52.052;8.354;2023-03-23T15:01:17;7.13;;;4.80;;
16954;SDS011;8594;52.052;8.354;2023-03-23T15:03:50;8.53;;;5.30;;
16954;SDS011;8594;52.052;8.354;2023-03-23T15:06:25;9.80;;;5.53;;
16954;SDS011;8594;52.052;8.354;2023-03-23T15:08:57;6.90;;;4.93;;
16954;SDS011;8594;52.052;8.354;2023-03-23T15:11:30;7.50;;;5.47;;
16954;SDS011;8594;52.052;8.354;2023-03-23T15:14:02;6.60;;;5.17;;
16954;SDS011;8594;52.052;8.354;2023-03-23T15:16:40;8.13;;;5.20;;
16954;SDS011;8594;52.052;8.354;2023-03-23T15:19:15;9.77;;;4.90;;
16954;SDS011;8594;52.052;8.354;2023-03-23T15:21:48;9.23;;;4.93;;
16954;SDS011;8594;52.052;8.354;2023-03-23T15:24:19;5.90;;;4.73;;
16954;SDS011;8594;52.052;8.354;2023-03-23T15:26:51;12.30;;;4.70;;
16954;SDS011;8594;52.052;8.354;2023-03-23T15:29:20;7.77;;;4.83;;
16954;SDS011;8594;52.052;8.354;2023-03-23T15:31:50;8.17;;;4.67;;
16954;SDS011;8594;52.052;8.354;2023-03-23T15:34:30;12.00;;;5.70;;